createdAt,value
2019-06-01T00:02:09.851Z,20.48
2019-06-01T00:04:40.809Z,20.49
2019-06-01T00:07:10.478Z,20.45
2019-06-01T00:09:40.988Z,20.32
2019-06-01T00:12:10.591Z,20.36
2019-06-01T00:14:41.369Z,20.31
2019-06-01T00:17:11.095Z,20.21
2019-06-01T00:19:40.602Z,20.11
2019-06-01T00:22:12.172Z,20.14
2019-06-01T00:24:41.792Z,20.09
2019-06-01T00:27:11.292Z,20.02
2019-06-01T00:29:40.821Z,20.07
2019-06-01T00:32:11.069Z,20.13
2019-06-01T00:34:41.263Z,20.04
2019-06-01T00:37:10.867Z,20.01
2019-06-01T00:39:41.573Z,19.93
2019-06-01T00:42:12.333Z,19.83
2019-06-01T00:44:42.105Z,19.68
2019-06-01T00:47:11.624Z,19.68
2019-06-01T00:49:41.153Z,19.49
2019-06-01T00:52:10.681Z,19.48
2019-06-01T00:54:40.168Z,19.61
2019-06-01T00:57:09.666Z,19.55
2019-06-01T00:59:39.259Z,19.61
2019-06-01T01:02:08.762Z,19.61
2019-06-01T01:04:38.267Z,19.55
2019-06-01T01:07:07.877Z,19.60
2019-06-01T01:09:37.399Z,19.55
2019-06-01T01:12:06.907Z,19.56
2019-06-01T01:14:36.428Z,19.53
2019-06-01T01:17:06.125Z,19.41
2019-06-01T01:19:35.643Z,19.35
2019-06-01T01:22:06.195Z,19.38
2019-06-01T01:24:35.714Z,19.30
2019-06-01T01:27:05.421Z,19.29
2019-06-01T01:29:34.964Z,19.30
2019-06-01T01:32:04.485Z,19.25
2019-06-01T01:34:34.063Z,19.26
2019-06-01T01:37:03.538Z,19.29
2019-06-01T01:39:33.039Z,19.37
2019-06-01T01:42:02.630Z,19.33
2019-06-01T01:44:32.097Z,19.33
2019-06-01T01:47:01.649Z,19.30
2019-06-01T01:49:31.158Z,19.22
2019-06-01T01:52:01.624Z,19.16
2019-06-01T01:54:31.211Z,19.09
2019-06-01T01:57:00.717Z,19.03
2019-06-01T01:59:30.242Z,19.02
2019-06-01T02:02:00.479Z,19.04
2019-06-01T02:04:30.016Z,18.97
2019-06-01T02:07:00.322Z,19.07
2019-06-01T02:09:30.875Z,19.08
2019-06-01T02:12:01.821Z,19.07
2019-06-01T02:14:31.582Z,19.08
2019-06-01T02:17:02.526Z,19.05
2019-06-01T02:19:32.207Z,19.06
2019-06-01T02:22:03.575Z,19.07
2019-06-01T02:24:32.936Z,19.06
2019-06-01T02:27:03.335Z,19.07
2019-06-01T02:29:32.846Z,19.00
2019-06-01T02:32:04.256Z,18.96
2019-06-01T02:34:33.585Z,18.99
2019-06-01T02:37:04.521Z,18.94
2019-06-01T02:39:34.116Z,18.93
2019-06-01T02:42:05.350Z,18.79
2019-06-01T02:44:36.060Z,18.73
2019-06-01T02:47:06.398Z,18.74
2019-06-01T02:49:35.929Z,18.80
2019-06-01T02:52:05.761Z,18.77
2019-06-01T02:54:35.314Z,18.76
2019-06-01T02:57:06.155Z,18.75
2019-06-01T02:59:35.720Z,18.76
2019-06-01T03:02:10.812Z,18.67
2019-06-01T03:04:36.606Z,18.61
2019-06-01T03:07:07.467Z,18.64
2019-06-01T03:09:38.914Z,18.65
2019-06-01T03:12:10.024Z,18.65
2019-06-01T03:14:40.169Z,18.64
2019-06-01T03:17:12.160Z,18.62
2019-06-01T03:19:43.209Z,18.62
2019-06-01T03:22:15.245Z,18.63
2019-06-01T03:24:46.545Z,18.66
2019-06-01T03:27:16.457Z,18.54
2019-06-01T03:29:52.896Z,18.54
2019-06-01T03:32:35.240Z,18.44
2019-06-01T03:34:53.660Z,18.46
2019-06-01T03:37:23.863Z,18.52
2019-06-01T03:39:53.376Z,18.38
2019-06-01T03:42:23.187Z,18.47
2019-06-01T03:44:52.721Z,18.45
2019-06-01T03:47:22.222Z,18.37
2019-06-01T03:49:51.757Z,18.40
2019-06-01T03:52:22.230Z,18.47
2019-06-01T03:54:51.752Z,18.53
2019-06-01T03:57:21.290Z,18.53
2019-06-01T03:59:50.804Z,18.56
2019-06-01T04:02:32.466Z,18.62
2019-06-01T04:04:52.509Z,18.64
2019-06-01T04:07:22.013Z,18.67
2019-06-01T04:09:51.543Z,18.71
2019-06-01T04:12:21.050Z,18.68
2019-06-01T04:14:50.574Z,18.70
2019-06-01T04:17:20.082Z,18.69
2019-06-01T04:19:49.620Z,18.74
2019-06-01T04:22:19.150Z,18.78
2019-06-01T04:24:48.655Z,18.83
2019-06-01T04:27:18.183Z,18.83
2019-06-01T04:29:48.653Z,18.74
2019-06-01T04:32:18.187Z,18.63
2019-06-01T04:34:47.673Z,18.62
2019-06-01T04:37:17.211Z,18.70
2019-06-01T04:39:46.730Z,18.72
2019-06-01T04:42:16.249Z,18.71
2019-06-01T04:44:45.767Z,18.79
2019-06-01T04:47:15.288Z,18.89
2019-06-01T04:49:44.870Z,19.12
2019-06-01T04:52:15.363Z,19.23
2019-06-01T04:54:44.883Z,19.30
2019-06-01T04:57:15.102Z,19.36
2019-06-01T04:59:44.859Z,19.48
2019-06-01T05:02:15.251Z,19.57
2019-06-01T05:04:44.784Z,19.65
2019-06-01T05:07:15.532Z,19.80
2019-06-01T05:09:45.304Z,19.83
2019-06-01T05:12:15.579Z,19.86
2019-06-01T05:14:45.135Z,20.00
2019-06-01T05:17:15.396Z,20.16
2019-06-01T05:19:45.888Z,20.20
2019-06-01T05:22:16.670Z,20.31
2019-06-01T05:24:46.261Z,20.42
2019-06-01T05:27:15.823Z,20.53
2019-06-01T05:29:45.388Z,20.57
2019-06-01T05:32:14.881Z,20.65
2019-06-01T05:34:44.403Z,20.80
2019-06-01T05:37:14.298Z,20.89
2019-06-01T05:39:44.772Z,20.99
2019-06-01T05:42:14.787Z,21.11
2019-06-01T05:44:45.349Z,21.16
2019-06-01T05:47:14.870Z,21.18
2019-06-01T05:49:44.667Z,21.35
2019-06-01T05:52:14.537Z,21.40
2019-06-01T05:54:44.113Z,21.57
2019-06-01T05:57:14.716Z,21.76
2019-06-01T05:59:44.268Z,21.96
2019-06-01T06:02:13.793Z,22.16
2019-06-01T06:04:43.298Z,22.32
2019-06-01T06:07:12.912Z,22.49
2019-06-01T06:09:42.500Z,22.61
2019-06-01T06:12:13.230Z,22.65
2019-06-01T06:14:42.825Z,22.90
2019-06-01T06:17:14.582Z,23.02
2019-06-01T06:19:43.547Z,23.16
2019-06-01T06:22:14.156Z,23.29
2019-06-01T06:24:43.668Z,23.39
2019-06-01T06:27:14.386Z,23.47
2019-06-01T06:29:44.074Z,23.59
2019-06-01T06:32:13.602Z,23.61
2019-06-01T06:34:43.115Z,23.85
2019-06-01T06:37:13.480Z,23.82
2019-06-01T06:39:43.153Z,23.75
2019-06-01T06:42:12.667Z,23.79
2019-06-01T06:44:43.157Z,23.86
2019-06-01T06:47:12.666Z,23.85
2019-06-01T06:49:42.199Z,23.88
2019-06-01T06:52:11.743Z,23.90
2019-06-01T06:54:41.247Z,23.95
2019-06-01T06:57:10.762Z,23.92
2019-06-01T06:59:40.278Z,24.02
2019-06-01T07:02:09.971Z,24.09
2019-06-01T07:04:39.497Z,24.15
2019-06-01T07:07:08.985Z,24.13
2019-06-01T07:09:39.598Z,24.29
2019-06-01T07:12:09.189Z,24.48
2019-06-01T07:14:38.730Z,24.56
2019-06-01T07:17:08.226Z,24.66
2019-06-01T07:19:37.865Z,24.73
2019-06-01T07:22:07.441Z,24.76
2019-06-01T07:24:36.953Z,24.81
2019-06-01T07:27:07.520Z,24.87
2019-06-01T07:29:37.029Z,24.83
2019-06-01T07:32:06.560Z,25.03
2019-06-01T07:34:41.599Z,25.02
2019-06-01T07:37:07.369Z,25.09
2019-06-01T07:39:36.977Z,25.23
2019-06-01T07:42:06.545Z,25.32
2019-06-01T07:44:36.019Z,25.41
2019-06-01T07:47:05.538Z,25.40
2019-06-01T07:49:35.094Z,25.46
2019-06-01T07:52:12.569Z,25.39
2019-06-01T07:54:35.986Z,25.47
2019-06-01T07:57:05.484Z,25.40
2019-06-01T07:59:35.016Z,25.64
2019-06-01T08:02:04.615Z,25.82
2019-06-01T08:04:50.663Z,25.84
2019-06-01T08:07:05.537Z,25.87
2019-06-01T08:09:35.046Z,25.88
2019-06-01T08:12:04.824Z,25.97
2019-06-01T08:14:34.476Z,26.01
2019-06-01T08:17:04.182Z,26.12
2019-06-01T08:19:34.768Z,26.06
2019-06-01T08:22:05.005Z,26.13
2019-06-01T08:24:34.775Z,25.97
2019-06-01T08:27:04.510Z,25.94
2019-06-01T08:29:34.033Z,25.92
2019-06-01T08:32:04.688Z,25.86
2019-06-01T08:34:34.272Z,25.86
2019-06-01T08:37:03.810Z,26.03
2019-06-01T08:39:34.236Z,26.10
2019-06-01T08:42:03.814Z,26.24
2019-06-01T08:44:33.783Z,26.26
2019-06-01T08:47:03.574Z,26.18
2019-06-01T08:49:34.433Z,26.17
2019-06-01T08:52:04.248Z,26.19
2019-06-01T08:54:34.298Z,26.12
2019-06-01T08:57:04.125Z,26.13
2019-06-01T08:59:34.614Z,26.19
2019-06-01T09:02:04.260Z,26.11
2019-06-01T09:04:34.940Z,26.27
2019-06-01T09:07:04.602Z,26.35
2019-06-01T09:09:35.185Z,26.38
2019-06-01T09:12:04.997Z,26.59
2019-06-01T09:14:35.568Z,26.71
2019-06-01T09:17:05.180Z,26.80
2019-06-01T09:19:35.758Z,26.81
2019-06-01T09:22:05.519Z,26.81
2019-06-01T09:24:36.251Z,26.83
2019-06-01T09:27:05.812Z,26.92
2019-06-01T09:29:36.164Z,26.89
2019-06-01T09:32:10.959Z,26.93
2019-06-01T09:34:38.131Z,26.80
2019-06-01T09:37:07.626Z,26.94
2019-06-01T09:39:37.395Z,26.84
2019-06-01T09:42:06.904Z,26.74
2019-06-01T09:44:37.358Z,26.78
2019-06-01T09:47:07.134Z,26.62
2019-06-01T09:49:37.912Z,26.69
2019-06-01T09:52:12.205Z,26.66
2019-06-01T09:54:39.975Z,26.68
2019-06-01T09:57:09.494Z,26.62
2019-06-01T09:59:39.083Z,26.61
2019-06-01T10:02:09.058Z,26.66
2019-06-01T10:04:39.308Z,26.78
2019-06-01T10:07:08.814Z,26.69
2019-06-01T10:09:38.334Z,26.70
2019-06-01T10:12:07.843Z,26.76
2019-06-01T10:14:39.312Z,26.69
2019-06-01T10:17:08.570Z,26.59
2019-06-01T10:19:38.886Z,26.78
2019-06-01T10:22:08.438Z,26.88
2019-06-01T10:24:39.201Z,26.86
2019-06-01T10:27:08.865Z,26.88
2019-06-01T10:29:39.941Z,27.05
2019-06-01T10:32:09.689Z,27.28
2019-06-01T10:34:39.861Z,27.52
2019-06-01T10:37:09.479Z,27.59
2019-06-01T10:39:39.443Z,27.35
2019-06-01T10:42:09.055Z,27.33
2019-06-01T10:44:45.178Z,27.55
2019-06-01T10:47:12.242Z,27.64
2019-06-01T10:49:42.192Z,27.45
2019-06-01T10:52:11.730Z,27.50
2019-06-01T10:54:42.502Z,27.49
2019-06-01T10:57:12.122Z,27.44
2019-06-01T10:59:42.626Z,27.36
2019-06-01T11:02:12.267Z,27.33
2019-06-01T11:04:43.246Z,27.30
2019-06-01T11:07:13.020Z,27.36
2019-06-01T11:09:43.259Z,27.54
2019-06-01T11:12:12.829Z,27.72
2019-06-01T11:14:43.461Z,27.74
2019-06-01T11:17:13.997Z,27.68
2019-06-01T11:19:43.762Z,27.66
2019-06-01T11:22:13.263Z,27.61
2019-06-01T11:24:43.993Z,27.64
2019-06-01T11:27:13.692Z,27.73
2019-06-01T11:29:50.833Z,27.92
2019-06-01T11:32:14.382Z,27.89
2019-06-01T11:34:44.500Z,27.86
2019-06-01T11:37:15.563Z,27.82
2019-06-01T11:39:45.369Z,27.91
2019-06-01T11:42:14.894Z,27.97
2019-06-01T11:44:44.906Z,28.00
2019-06-01T11:47:15.466Z,27.99
2019-06-01T11:49:45.142Z,27.99
2019-06-01T11:52:14.657Z,28.01
2019-06-01T11:54:45.330Z,27.86
2019-06-01T11:57:14.949Z,27.94
2019-06-01T11:59:45.647Z,27.87
2019-06-01T12:02:16.331Z,27.79
2019-06-01T12:04:46.422Z,27.74
2019-06-01T12:07:18.111Z,27.82
2019-06-01T12:09:47.564Z,27.86
2019-06-01T12:12:17.085Z,27.98
2019-06-01T12:14:46.855Z,28.03
2019-06-01T12:17:16.400Z,28.12
2019-06-01T12:19:47.003Z,28.15
2019-06-01T12:22:17.700Z,28.28
2019-06-01T12:24:47.522Z,28.04
2019-06-01T12:27:18.054Z,28.06
2019-06-01T12:29:48.305Z,28.07
2019-06-01T12:32:18.788Z,28.16
2019-06-01T12:34:48.602Z,28.09
2019-06-01T12:37:36.226Z,28.12
2019-06-01T12:39:52.131Z,28.11
2019-06-01T12:42:20.576Z,28.13
2019-06-01T12:44:50.097Z,28.10
2019-06-01T12:47:19.599Z,28.19
2019-06-01T12:49:49.592Z,28.33
2019-06-01T12:52:19.135Z,28.34
2019-06-01T12:54:49.014Z,28.30
2019-06-01T12:57:18.733Z,28.31
2019-06-01T12:59:48.216Z,28.39
2019-06-01T13:02:17.720Z,28.29
2019-06-01T13:04:47.249Z,28.31
2019-06-01T13:07:16.772Z,28.46
2019-06-01T13:09:46.335Z,28.54
2019-06-01T13:24:30.260Z,28.80
2019-06-01T13:26:59.783Z,28.80
2019-06-01T13:33:29.159Z,28.96
2019-06-01T13:35:58.682Z,28.98
2019-06-01T13:38:28.215Z,29.00
2019-06-01T13:40:57.756Z,28.93
2019-06-01T13:43:27.304Z,29.04
2019-06-01T13:45:56.813Z,29.05
2019-06-01T13:48:27.356Z,29.11
2019-06-01T13:50:56.940Z,29.21
2019-06-01T13:53:26.485Z,29.22
2019-06-01T13:55:56.000Z,29.18
2019-06-01T13:58:25.524Z,29.23
2019-06-01T14:00:55.038Z,29.24
2019-06-01T14:03:24.568Z,29.26
2019-06-01T14:05:55.130Z,29.36
2019-06-01T14:08:28.806Z,29.32
2019-06-01T14:10:55.987Z,29.44
2019-06-01T14:13:25.512Z,29.49
2019-06-01T14:15:55.603Z,29.50
2019-06-01T14:18:25.273Z,29.63
2019-06-01T14:20:55.854Z,29.71
2019-06-01T14:23:25.384Z,29.72
2019-06-01T14:25:54.903Z,29.70
2019-06-01T14:28:24.421Z,29.76
2019-06-01T14:30:54.338Z,29.78
2019-06-01T14:33:23.886Z,29.76
2019-06-01T14:35:54.532Z,29.80
2019-06-01T14:38:24.110Z,29.83
2019-06-01T14:40:53.733Z,29.80
2019-06-01T14:43:23.261Z,29.80
2019-06-01T14:45:54.036Z,29.70
2019-06-01T14:48:23.805Z,29.73
2019-06-01T14:50:53.767Z,29.72
2019-06-01T14:53:23.365Z,29.64
2019-06-01T14:55:53.953Z,29.61
2019-06-01T14:58:23.494Z,29.18
2019-06-01T15:00:54.450Z,29.60
2019-06-01T15:03:24.228Z,29.65
2019-06-01T15:05:54.398Z,29.61
2019-06-01T15:08:23.955Z,29.62
2019-06-01T15:10:55.276Z,29.69
2019-06-01T15:13:25.256Z,29.67
2019-06-01T15:15:55.581Z,29.67
2019-06-01T15:18:25.236Z,29.60
2019-06-01T15:20:55.843Z,29.57
2019-06-01T15:23:25.656Z,29.67
2019-06-01T15:25:56.478Z,29.63
2019-06-01T15:28:26.058Z,29.61
2019-06-01T15:30:57.027Z,29.70
2019-06-01T15:33:26.679Z,29.76
2019-06-01T15:35:56.182Z,29.79
2019-06-01T15:38:25.723Z,29.79
2019-06-01T15:40:56.167Z,29.86
2019-06-01T15:43:25.783Z,29.84
2019-06-01T15:45:55.420Z,29.92
2019-06-01T15:48:24.924Z,30.08
2019-06-01T15:51:00.266Z,30.24
2019-06-01T15:53:25.666Z,30.28
2019-06-01T15:55:56.489Z,30.05
2019-06-01T15:58:26.290Z,30.33
2019-06-01T16:00:56.732Z,30.29
2019-06-01T16:03:26.339Z,30.31
2019-06-01T16:05:56.998Z,30.36
2019-06-01T16:08:26.588Z,30.40
2019-06-01T16:11:01.107Z,30.46
2019-06-01T16:13:27.464Z,30.56
2019-06-01T16:15:58.303Z,30.53
2019-06-01T16:18:28.601Z,30.66
2019-06-01T16:20:58.151Z,30.62
2019-06-01T16:23:27.773Z,30.46
2019-06-01T16:26:07.558Z,30.49
2019-06-01T16:28:28.559Z,30.40
2019-06-01T16:30:58.521Z,30.36
2019-06-01T16:33:28.207Z,30.06
2019-06-01T16:35:58.816Z,30.05
2019-06-01T16:38:29.325Z,30.10
2019-06-01T16:40:59.216Z,30.20
2019-06-01T16:51:04.387Z,29.99
2019-06-01T16:53:33.967Z,29.47
2019-06-01T16:56:04.056Z,29.77
2019-06-01T16:58:33.592Z,29.72
2019-06-01T17:01:04.995Z,29.78
2019-06-01T17:03:34.691Z,29.73
2019-06-01T17:06:04.808Z,29.75
2019-06-01T17:08:34.409Z,29.76
2019-06-01T17:11:04.844Z,29.71
2019-06-01T17:13:34.439Z,29.63
2019-06-01T17:16:05.170Z,29.58
2019-06-01T17:18:34.767Z,29.50
2019-06-01T17:21:05.582Z,29.47
2019-06-01T17:23:35.609Z,29.47
2019-06-01T17:26:07.067Z,29.03
2019-06-01T17:28:36.395Z,29.50
2019-06-01T17:31:06.370Z,29.44
2019-06-01T17:33:36.004Z,29.46
2019-06-01T17:36:06.734Z,29.42
2019-06-01T17:38:36.372Z,29.46
2019-06-01T17:41:06.370Z,29.60
2019-06-01T17:43:36.043Z,29.56
2019-06-01T17:46:05.632Z,29.49
2019-06-01T17:48:35.159Z,29.51
2019-06-01T17:51:04.792Z,29.51
2019-06-01T17:53:34.303Z,29.48
2019-06-01T17:56:04.007Z,29.43
2019-06-01T17:58:33.581Z,29.40
2019-06-01T18:01:04.226Z,29.39
2019-06-01T18:03:34.248Z,29.42
2019-06-01T18:06:03.865Z,29.36
2019-06-01T18:08:33.382Z,29.35
2019-06-01T18:11:03.857Z,29.32
2019-06-01T18:13:33.429Z,29.23
2019-06-01T18:16:04.259Z,29.15
2019-06-01T18:18:34.262Z,29.13
2019-06-01T18:21:04.184Z,29.09
2019-06-01T18:23:34.822Z,29.08
2019-06-01T18:26:05.103Z,29.06
2019-06-01T18:28:34.708Z,29.02
2019-06-01T18:31:04.589Z,28.98
2019-06-01T18:33:34.135Z,28.89
2019-06-01T18:36:03.696Z,28.74
2019-06-01T18:38:33.225Z,28.60
2019-06-01T18:41:12.883Z,28.54
2019-06-01T18:43:34.011Z,28.59
2019-06-01T18:46:03.752Z,28.49
2019-06-01T18:48:33.291Z,28.38
2019-06-01T18:51:04.004Z,28.35
2019-06-01T18:53:33.716Z,28.38
2019-06-01T18:56:04.150Z,28.33
2019-06-01T18:58:33.945Z,28.25
2019-06-01T19:01:04.387Z,28.15
2019-06-01T19:03:35.023Z,28.12
2019-06-01T19:06:05.276Z,28.10
2019-06-01T19:08:34.829Z,27.90
2019-06-01T19:11:05.731Z,27.97
2019-06-01T19:13:35.333Z,27.93
2019-06-01T19:16:05.817Z,27.83
2019-06-01T19:18:35.492Z,27.76
2019-06-01T19:21:06.330Z,27.66
2019-06-01T19:23:36.019Z,27.59
2019-06-01T19:26:09.178Z,27.55
2019-06-01T19:28:36.817Z,27.51
2019-06-01T19:31:06.794Z,27.34
2019-06-01T19:33:37.248Z,27.27
2019-06-01T19:36:07.071Z,27.21
2019-06-01T19:38:38.104Z,27.05
2019-06-01T19:41:07.650Z,26.91
2019-06-01T19:43:38.128Z,26.22
2019-06-01T19:46:07.735Z,26.57
2019-06-01T19:48:37.200Z,26.64
2019-06-01T19:51:06.767Z,26.59
2019-06-01T19:53:36.328Z,26.54
2019-06-01T19:56:05.961Z,26.45
2019-06-01T19:58:35.575Z,26.32
2019-06-01T20:01:05.265Z,26.24
2019-06-01T20:03:34.790Z,26.18
2019-06-01T20:06:04.396Z,26.08
2019-06-01T20:08:34.010Z,26.14
2019-06-01T20:11:03.544Z,26.06
2019-06-01T20:13:33.091Z,25.94
2019-06-01T20:16:02.632Z,25.88
2019-06-01T20:18:32.267Z,25.82
2019-06-01T20:21:01.783Z,25.64
2019-06-01T20:23:31.310Z,25.19
2019-06-01T20:26:00.849Z,24.56
2019-06-01T20:28:30.399Z,24.42
2019-06-01T20:30:59.943Z,24.06
2019-06-01T20:33:29.506Z,23.88
2019-06-01T20:35:59.038Z,23.81
2019-06-01T20:38:28.574Z,23.76
2019-06-01T20:40:58.367Z,23.58
2019-06-01T20:43:27.904Z,23.47
2019-06-01T20:45:57.427Z,23.26
2019-06-01T20:48:27.034Z,23.22
2019-06-01T20:50:56.650Z,23.21
2019-06-01T20:53:26.174Z,23.25
2019-06-01T20:55:55.734Z,23.17
2019-06-01T20:58:25.265Z,23.09
2019-06-01T21:00:54.864Z,22.93
2019-06-01T21:03:24.568Z,22.87
2019-06-01T21:05:55.156Z,22.98
2019-06-01T21:08:24.680Z,23.13
2019-06-01T21:10:54.216Z,23.25
2019-06-01T21:13:24.715Z,23.32
2019-06-01T21:15:54.248Z,23.45
2019-06-01T21:18:25.037Z,23.55
2019-06-01T21:20:55.810Z,23.65
2019-06-01T21:23:25.522Z,23.80
2019-06-01T21:25:55.407Z,23.92
2019-06-01T21:28:25.905Z,24.03
2019-06-01T21:30:55.495Z,24.10
2019-06-01T21:33:28.176Z,24.21
2019-06-01T21:35:56.256Z,24.24
2019-06-01T21:38:25.873Z,24.29
2019-06-01T21:40:55.405Z,24.24
2019-06-01T21:43:34.904Z,24.20
2019-06-01T21:45:56.859Z,24.19
2019-06-01T21:48:26.409Z,24.07
2019-06-01T21:50:55.956Z,24.20
2019-06-01T21:53:26.676Z,24.21
2019-06-01T21:55:56.407Z,24.20
2019-06-01T21:58:26.910Z,24.17
2019-06-01T22:00:56.528Z,24.11
2019-06-01T22:03:27.771Z,24.04
2019-06-01T22:05:57.308Z,24.01
2019-06-01T22:08:27.534Z,23.95
2019-06-01T22:10:58.489Z,23.89
2019-06-01T22:13:28.934Z,23.78
2019-06-01T22:15:59.947Z,23.76
2019-06-01T22:18:29.509Z,23.72
2019-06-01T22:20:59.057Z,23.67
2019-06-01T22:23:29.563Z,23.54
2019-06-01T22:25:59.097Z,23.08
2019-06-01T22:28:28.815Z,23.38
2019-06-01T22:30:58.306Z,23.27
2019-06-01T22:33:28.793Z,23.18
2019-06-01T22:35:58.459Z,23.12
2019-06-01T22:38:28.981Z,23.15
2019-06-01T22:40:59.502Z,23.15
2019-06-01T22:43:43.508Z,23.03
2019-06-01T22:46:00.246Z,23.01
2019-06-01T22:48:29.819Z,22.96
2019-06-01T22:51:00.347Z,22.93
2019-06-01T22:53:29.895Z,22.85
2019-06-01T22:56:00.511Z,22.80
2019-06-01T22:58:30.063Z,22.75
2019-06-01T23:00:59.590Z,22.75
2019-06-01T23:03:30.170Z,22.66
2019-06-01T23:05:59.908Z,22.57
2019-06-01T23:08:29.578Z,22.54
2019-06-01T23:10:59.065Z,22.52
2019-06-01T23:13:28.621Z,22.45
2019-06-01T23:15:58.175Z,22.39
2019-06-01T23:18:28.012Z,22.28
2019-06-01T23:20:57.641Z,22.15
2019-06-01T23:23:28.082Z,22.17
2019-06-01T23:25:57.697Z,22.19
2019-06-01T23:28:28.656Z,22.19
2019-06-01T23:30:59.386Z,21.97
2019-06-01T23:33:28.966Z,21.85
2019-06-01T23:35:58.481Z,21.87
2019-06-01T23:38:28.667Z,21.82
2019-06-01T23:40:59.405Z,21.65
2019-06-01T23:43:28.986Z,21.42
2019-06-01T23:45:58.533Z,21.51
2019-06-01T23:48:29.325Z,21.58
2019-06-01T23:50:58.960Z,21.55
2019-06-01T23:53:29.566Z,21.55
2019-06-01T23:55:59.226Z,21.55
2019-06-01T23:58:30.060Z,21.59
